• Join FlightAware (Why Join?)
  • Login
  • US Flag 
10:59AM EDT


 

Airport Tracker/Info


-or-


 

Live Flight TrackerFlight Track Log ✈ AVN11 ✈ 05-Oct-2013 ✈ YSSY / SYD - NVVV / VLI

Flight Track Log - Related Links

Times and Time Zones

All times are in EDT time to prevent confusion due to time zone crossing. See the AVN11 flight status page for this flight to view local times or setup timezone preferences in your user account.

Time Position Orientation Groundspeed Altitude Reporting Facility
EDT Latitude Longitude Course Direction KTS MPH feet Rate Location/Type
05:37AM -33.9422 151.1701 88° East 94 108  Level FlightAware ADS-B (YRAY)
05:38AM -33.9385 151.1860 74° East 165 190 200 1,320 Climbing FlightAware ADS-B (YRAY)
05:38AM -33.9342 151.2044 74° East 182 209 900 1,980 Climbing FlightAware ADS-B (YRAY)
05:38AM -33.9310 151.2245 79° East 199 229 1,500 1,680 Climbing FlightAware ADS-B
05:39AM -33.9282 151.2464 81° East 212 244 2,000 1,320 Climbing FlightAware ADS-B
05:39AM -33.9265 151.2609 82° East 230 265 2,200 1,740 Climbing FlightAware ADS-B (YRAY)
05:39AM -33.9238 151.2867 83° East 246 283 2,900 2,400 Climbing FlightAware ADS-B
05:39AM -33.9209 151.3127 82° East 253 291 3,900 1,920 Climbing FlightAware ADS-B
05:40AM -33.9174 151.3432 82° East 252 290 4,200 1,020 Climbing FlightAware ADS-B
05:40AM -33.9142 151.3729 83° East 249 287 4,600 1,020 Climbing FlightAware ADS-B
05:40AM -33.9115 151.3991 83° East 271 312 4,900 1,200 Climbing FlightAware ADS-B (YRAY)
05:41AM -33.9087 151.4271 83° East 302 348 5,300 1,080 Climbing FlightAware ADS-B
05:41AM -33.9053 151.4618 83° East 332 382 5,700 1,680 Climbing FlightAware ADS-B
05:41AM -33.9031 151.4950 85° East 345 397 6,400 2,580 Climbing FlightAware ADS-B
05:42AM -33.9034 151.5327 90° East 354 407 7,100 2,520 Climbing FlightAware ADS-B
05:42AM -33.9035 151.5596 90° East 356 410 8,000 2,640 Climbing FlightAware ADS-B
05:42AM -33.9038 151.6181 90° East 368 423 9,000 2,460 Climbing FlightAware ADS-B
05:43AM -33.9040 151.6568 90° East 376 433 9,800 2,280 Climbing FlightAware ADS-B
05:43AM -33.9045 151.7142 91° East 392 451 10,900 2,520 Climbing FlightAware ADS-B
05:44AM -33.9053 151.8186 91° East 403 464 13,100 2,640 Climbing FlightAware ADS-B
05:45AM -33.9060 151.9020 91° East 410 472 14,500 2,580 Climbing FlightAware
05:45AM -33.9058 151.9317 90° East 412 474 15,100 2,400 Climbing FlightAware ADS-B
05:45AM -33.9061 152.0109 90° East 419 482 16,400 2,340 Climbing FlightAware ADS-B
05:46AM -33.9062 152.0847 90° East 412 474 17,700 2,220 Climbing Aus ATC (RADAR)
05:46AM -33.9020 152.1100 90° East 425 489 18,000 2,520 Climbing FlightAware
05:46AM -33.9009 152.1123 60° Northeast 425 489 18,300 2,460 Climbing FlightAware ADS-B
05:46AM -33.8856 152.1457 61° Northeast 421 484 18,700 1,800 Climbing FlightAware ADS-B
05:47AM -33.8393 152.2053 47° Northeast 429 494 19,800 1,620 Climbing FlightAware ADS-B
05:47AM -33.7973 152.2601 47° Northeast 441 507 20,500 1,560 Climbing FlightAware ADS-B
05:48AM -33.7383 152.3372 47° Northeast 454 522 21,700 2,100 Climbing FlightAware ADS-B
05:49AM -33.6860 152.4050 47° Northeast 440 506 23,300 2,100 Climbing FlightAware
05:49AM -33.6300 152.4780 47° Northeast 451 519 24,500 1,740 Climbing FlightAware
05:50AM -33.5790 152.5430 47° Northeast 450 518 25,500 1,440 Climbing FlightAware
05:51AM -33.5290 152.6060 46° Northeast 458 527 26,200 780 Climbing FlightAware
05:51AM -33.4649 152.6875 46° Northeast 468 539 26,500 420 Climbing Aus ATC (RADAR)
05:51AM -33.4720 152.6790 46° Northeast 479 551 26,500 840 Level FlightAware
05:52AM -33.4120 152.7550 47° Northeast 497 572 27,000 900 Climbing FlightAware
05:52AM -33.3590 152.8220 47° Northeast 499 574 27,600 1,260 Climbing FlightAware
05:53AM -33.2990 152.8980 47° Northeast 498 573 28,500 1,920 Climbing FlightAware
05:54AM -33.2434 152.9685 47° Northeast 490 564 29,900 2,220 Climbing Aus ATC (RADAR)
05:54AM -33.2450 152.9660 47° Northeast 490 564 29,800 1,680 Descending FlightAware
05:54AM -33.1910 153.0340 47° Northeast 477 549 30,900 1,080 Climbing FlightAware
05:55AM -33.1210 153.1220 46° Northeast 496 571 31,300 480 Climbing FlightAware
05:55AM -33.0720 153.1840 47° Northeast 509 586 31,500 720 Climbing FlightAware
05:56AM -33.0150 153.2550 46° Northeast 504 580 32,100 1,020 Climbing FlightAware
05:57AM -32.9600 153.3250 47° Northeast 511 588 32,700 960 Climbing FlightAware
05:57AM -32.9030 153.3962 47° Northeast 512 589 33,200 900 Climbing Aus ATC (RADAR)
05:57AM -32.8950 153.4060 47° Northeast 514 592 33,300 840 Climbing FlightAware
05:58AM -32.8360 153.4790 46° Northeast 512 589 33,800 780 Climbing FlightAware
05:58AM -32.7870 153.5400 46° Northeast 518 596 34,200 840 Climbing FlightAware
05:59AM -32.7210 153.6220 46° Northeast 514 592 34,800 660 Climbing FlightAware
05:59AM -32.6720 153.6820 46° Northeast 514 592 35,000 240 Climbing FlightAware
06:00AM -32.6130 153.7550 46° Northeast 513 590 35,100 540 Climbing FlightAware
06:00AM -32.5967 153.7758 46° Northeast 518 596 35,400 1,020 Climbing Aus ATC (RADAR)
06:01AM -32.5480 153.8360 46° Northeast 510 587 35,700 420 Climbing FlightAware
06:01AM -32.4890 153.9070 45° Northeast 515 593 35,900 240 Climbing FlightAware
06:02AM -32.4370 153.9710 46° Northeast 525 604 36,000 60 Climbing FlightAware
06:02AM -32.3740 154.0480 46° Northeast 524 603 36,000  Level FlightAware
06:03AM -32.3170 154.1190 46° Northeast 520 598 36,000  Level FlightAware
06:04AM -32.2540 154.1950 46° Northeast 517 595 36,000  Level FlightAware
06:04AM -32.1990 154.2620 46° Northeast 516 594 36,000  Level FlightAware
06:05AM -32.1570 154.3110 45° Northeast 516 594 36,000 60 Level FlightAware
06:05AM -32.0864 154.3986 45° Northeast 502 578 36,100  Climbing Aus ATC (RADAR)
06:05AM -32.0870 154.3980 45° Northeast 514 592 36,000 -180 Descending FlightAware
06:06AM -32.0270 154.4710 46° Northeast 513 590 36,000  Level FlightAware
06:07AM -31.9680 154.5430 46° Northeast 513 590 36,000  Level FlightAware
06:07AM -31.8970 154.6260 46° Northeast 512 589 36,000 120 Level FlightAware
06:07AM -31.8875 154.6381 46° Northeast 498 573 36,100  Climbing Aus ATC (RADAR)
06:08AM -31.8460 154.6890 46° Northeast 512 589 36,000  Descending FlightAware
06:08AM -31.8314 154.7057 46° Northeast 512 589 36,100  Climbing Aus ATC (RADAR)
06:08AM -31.7850 154.7610 45° Northeast 512 589 36,000 -120 Descending FlightAware
06:09AM -31.7290 154.8290 46° Northeast 512 589 36,000  Level FlightAware
06:09AM -31.6726 154.8955 46° Northeast 495 570 36,000  Level Aus ATC (RADAR)
06:10AM -31.6590 154.9120 46° Northeast 512 589 36,000  Level FlightAware
06:10AM -31.5900 154.9950 46° Northeast 511 588 36,000  Level FlightAware
06:11AM -31.5470 155.0460 45° Northeast 511 588 36,000  Level FlightAware
06:11AM -31.4746 155.1321 45° Northeast 491 565 36,000  Level Aus ATC (RADAR)
06:11AM -31.4790 155.1280 45° Northeast 509 586 36,000  Level FlightAware
06:12AM -31.4200 155.1970 45° Northeast 509 586 36,000  Level FlightAware
06:13AM -31.3588 155.2697 45° Northeast 493 567 36,000  Level Aus ATC (RADAR)
06:13AM -31.3670 155.2590 45° Northeast 509 586 36,000 120 Level FlightAware
06:13AM -31.3003 155.3380 45° Northeast 495 570 36,100  Climbing Aus ATC (RADAR)
06:13AM -31.3160 155.3190 45° Northeast 509 586 36,000 -180 Descending FlightAware
06:14AM -31.2650 155.3790 45° Northeast 509 586 36,000 60 Level FlightAware
06:14AM -31.1771 155.4838 45° Northeast 490 564 36,100  Climbing Aus ATC (RADAR)
06:14AM -31.2140 155.4380 45° Northeast 509 586 36,000  Descending FlightAware
06:15AM -31.1206 155.5497 45° Northeast 507 583 36,100  Climbing Aus ATC (RADAR)
06:15AM -31.1140 155.5570 45° Northeast 509 586 36,000 -180 Descending FlightAware
06:16AM -31.0640 155.6170 46° Northeast 509 586 36,000  Level FlightAware
06:16AM -30.9860 155.7071 46° Northeast 492 566 36,000  Level Aus ATC (RADAR)
06:16AM -31.0130 155.6760 46° Northeast 509 586 36,000  Level FlightAware
06:17AM -30.9620 155.7360 45° Northeast 509 586 36,000 60 Level FlightAware
06:17AM -30.8708 155.8421 45° Northeast 511 588 36,100  Climbing Aus ATC (RADAR)
06:18AM -30.9110 155.7950 45° Northeast 509 586 36,000 -180 Descending FlightAware
06:18AM -30.8600 155.8540 45° Northeast 509 586 36,000 60 Level FlightAware
06:19AM -30.7186 156.0373 45° Northeast 515 593 36,100  Climbing Aus ATC (RADAR)
06:19AM -30.6949 156.0685 48° Northeast 516 594 36,000  Descending Aus ATC (RADAR)
06:20AM -30.6395 156.1416 49° Northeast 516 594 36,100 60 Climbing Aus ATC (RADAR)
06:21AM -30.5606 156.2458 49° Northeast 516 594 36,100  Level Aus ATC (RADAR)
06:21AM -30.5448 156.2666 49° Northeast 515 593 36,100  Level Aus ATC (RADAR)
06:21AM -30.4902 156.3389 49° Northeast 512 589 36,100 -120 Level Aus ATC (RADAR)
06:22AM -30.4117 156.4416 49° Northeast 510 587 36,000 -120 Descending Aus ATC (RADAR)
06:23AM -30.3800 156.4828 48° Northeast 511 588 36,000  Level Aus ATC (RADAR)
06:23AM -30.3245 156.5553 48° Northeast 513 590 36,000  Level Aus ATC (RADAR)
06:24AM -30.2373 156.6693 48° Northeast 514 592 36,000  Level Aus ATC (RADAR)
06:24AM -30.2055 156.7106 48° Northeast 515 593 36,000  Level Aus ATC (RADAR)
06:25AM -30.1499 156.7831 48° Northeast 515 593 36,000  Level Aus ATC (RADAR)
06:26AM -30.0633 156.8963 49° Northeast 512 589 36,000  Level Aus ATC (RADAR)
06:26AM -30.0153 156.9581 48° Northeast 513 590 36,000  Level Aus ATC (RADAR)
06:27AM -29.9288 157.0705 48° Northeast 509 586 36,000  Level Aus ATC (RADAR)
06:28AM -29.9136 157.0907 49° Northeast 506 582 36,000  Level Aus ATC (RADAR)
06:28AM -29.9020 157.1030 49° Northeast 513 590 36,000  Level FlightAware
06:28AM -29.8370 157.1880 49° Northeast 513 590 36,000  Level FlightAware
06:29AM -29.7880 157.2530 49° Northeast 513 590 36,000  Level FlightAware
06:30AM -29.7390 157.3180 49° Northeast 513 590 36,000  Level FlightAware
06:30AM -29.6920 157.3810 49° Northeast 513 590 36,000  Level FlightAware
06:31AM -29.5994 157.4920 49° Northeast 520 598 36,000  Level Aus ATC (RADAR)
06:31AM -29.6440 157.4440 49° Northeast 513 590 36,000  Level FlightAware
06:32AM -29.5330 157.5770 49° Northeast 514 592 36,000  Level FlightAware
06:32AM -29.5279 157.5837 49° Northeast 515 593 36,000  Level Aus ATC (RADAR)
06:32AM -29.4950 157.6250 48° Northeast 514 592 36,000  Level FlightAware
06:33AM -29.4370 157.6970 47° Northeast 515 593 36,000  Level FlightAware
06:33AM -29.3597 157.7977 47° Northeast 513 590 36,000  Level Aus ATC (RADAR)
06:33AM -29.3850 157.7630 47° Northeast 515 593 36,000  Level FlightAware
06:34AM -29.3350 157.8270 48° Northeast 515 593 36,000  Level FlightAware
06:35AM -29.2870 157.8890 48° Northeast 515 593 36,000  Level FlightAware
06:35AM -29.2380 157.9510 48° Northeast 515 593 36,000  Level FlightAware
06:36AM -29.1890 158.0130 48° Northeast 515 593 36,000  Level FlightAware
06:36AM -29.1400 158.0750 48° Northeast 515 593 36,000  Level FlightAware
06:37AM -29.0890 158.1410 49° Northeast 515 593 36,000  Level FlightAware
06:38AM -29.0400 158.2030 48° Northeast 515 593 36,000  Level FlightAware
06:38AM -28.9910 158.2650 48° Northeast 515 593 36,000  Level FlightAware
06:39AM -28.9420 158.3270 48° Northeast 515 593 36,000  Level FlightAware
06:39AM -28.8940 158.3890 49° Northeast 515 593 36,000  Level FlightAware
06:40AM -28.8450 158.4500 47° Northeast 515 593 36,000  Level FlightAware
06:41AM -28.7960 158.5120 48° Northeast 515 593 36,000  Level FlightAware
06:41AM -28.7460 158.5760 48° Northeast 515 593 36,000  Level FlightAware
06:42AM -28.5467 158.8110 225° Southwest 35,000  Descending Aus ATC (Calculated)
06:42AM -28.6970 158.6380 48° Northeast 515 593 36,000 1,320 Climbing FlightAware
06:42AM -28.6480 158.6990 48° Northeast 515 593 36,000  Level FlightAware
06:45AM -28.4320 158.9119 41° Northeast  Level Estimated
06:45AM -28.2727 159.1479 47° Northeast 37,000  Level Aus ATC (Calculated)
06:47AM -28.0893 159.3254 41° Northeast  Level Estimated
06:48AM -27.9874 159.4237 40° Northeast  Level Estimated
06:49AM -27.8853 159.5219 40° Northeast  Level Estimated
06:49AM -27.8162 159.7031 47° Northeast 37,000  Level Aus ATC (Calculated)
06:50AM -27.7725 159.7559 47° Northeast 37,000  Level Aus ATC (Calculated)
06:52AM -27.5788 159.9383 40° Northeast  Level Estimated
06:52AM -27.5571 160.0151 47° Northeast 37,000  Level Aus ATC (Calculated)
06:53AM -27.4758 160.0348 40° Northeast  Level Estimated
06:54AM -27.3856 160.1745 40° Northeast  Level Estimated
06:54AM -27.3182 160.3006 47° Northeast 37,000  Level Aus ATC (Calculated)
06:56AM -27.1720 160.4346 39° Northeast  Level Estimated
06:56AM -27.1012 160.5583 46° Northeast 37,000  Level Aus ATC (Calculated)
06:57AM -27.0676 160.5302 39° Northeast  Level Estimated
06:57AM -27.0356 160.6359 46° Northeast 37,000  Level Aus ATC (Calculated)
06:58AM -26.9876 160.6611 39° Northeast  Level Estimated
06:58AM -26.9082 160.7861 46° Northeast 37,000  Level Aus ATC (Calculated)
06:59AM -26.8885 160.7685 39° Northeast  Level Estimated
07:00AM -26.7942 160.8882 39° Northeast  Level Estimated
07:01AM -26.6889 160.9822 39° Northeast  Level Estimated
07:01AM -26.7289 160.9967 46° Northeast 37,000  Level Aus ATC (Calculated)
07:02AM -26.6233 161.0903 38° Northeast  Level Estimated
07:03AM -26.5175 161.1836 38° Northeast  Level Estimated
07:03AM -26.5119 161.2504 46° Northeast 37,000  Level Aus ATC (Calculated)
07:04AM -26.4057 161.3430 38° Northeast  Level Estimated
07:05AM -26.2995 161.4355 38° Northeast  Level Estimated
07:06AM -26.1932 161.5278 38° Northeast  Level Estimated
07:07AM -26.0869 161.6199 38° Northeast  Level Estimated
07:08AM -25.9805 161.7119 38° Northeast  Level Estimated
07:09AM -25.8740 161.8037 38° Northeast  Level Estimated
07:10AM -25.7675 161.8953 38° Northeast  Level Estimated
07:11AM -25.6609 161.9868 38° Northeast  Level Estimated
07:12AM -25.5543 162.0781 38° Northeast  Level Estimated
07:13AM -25.4476 162.1692 38° Northeast  Level Estimated
07:13AM -25.5089 162.4036 46° Northeast 37,000  Level Aus ATC (Calculated)
07:14AM -25.4003 162.4919 36° Northeast  Level Estimated
07:15AM -25.2916 162.5800 36° Northeast  Level Estimated
07:16AM -25.1829 162.6680 36° Northeast  Level Estimated
07:17AM -25.0742 162.7558 36° Northeast  Level Estimated
07:18AM -24.9653 162.8434 36° Northeast  Level Estimated
07:19AM -24.8565 162.9309 36° Northeast  Level Estimated
07:20AM -24.7476 163.0182 36° Northeast  Level Estimated
07:21AM -24.6386 163.1054 36° Northeast  Level Estimated
07:22AM -24.5296 163.1924 36° Northeast  Level Estimated
07:23AM -24.4205 163.2793 36° Northeast  Level Estimated
07:24AM -24.3114 163.3661 36° Northeast  Level Estimated
07:25AM -24.2023 163.4526 36° Northeast  Level Estimated
07:26AM -24.0931 163.5391 36° Northeast  Level Estimated
07:27AM -23.9838 163.6254 36° Northeast  Level Estimated
07:28AM -23.8745 163.7115 36° Northeast  Level Estimated
07:29AM -23.7652 163.7975 36° Northeast  Level Estimated
07:30AM -23.6558 163.8834 36° Northeast  Level Estimated
07:31AM -23.5463 163.9691 36° Northeast  Level Estimated
07:32AM -23.4368 164.0546 36° Northeast  Level Estimated
07:32AM -23.5740 164.5440 36° Northeast 516 594 37,000  Level FlightAware
07:33AM -23.5160 164.6070 45° Northeast 516 594 37,000  Level FlightAware
07:34AM -23.4260 164.7050 45° Northeast 516 594 37,000  Level FlightAware
07:34AM -23.3690 164.7650 44° Northeast 516 594 37,000  Level FlightAware
07:35AM -23.3010 164.8400 45° Northeast 516 594 37,000  Level FlightAware
07:36AM -23.2380 164.9070 44° Northeast 516 594 37,000  Level FlightAware
07:36AM -23.1840 164.9650 45° Northeast 516 594 37,000  Level FlightAware
07:37AM -23.1270 165.0260 45° Northeast 516 594 37,000  Level FlightAware
07:37AM -23.0550 165.1020 44° Northeast 516 594 37,000  Level FlightAware
07:38AM -23.0020 165.1600 45° Northeast 515 593 37,000  Level FlightAware
07:39AM -22.9410 165.2250 44° Northeast 514 592 37,000  Level FlightAware
07:39AM -22.8790 165.2900 44° Northeast 514 592 37,000  Level FlightAware
07:40AM -22.8350 165.3370 45° Northeast 514 592 37,000  Level FlightAware
07:40AM -22.7490 165.4280 44° Northeast 515 593 37,000  Level FlightAware
07:41AM -22.6970 165.4830 44° Northeast 515 593 37,000  Level FlightAware
07:42AM -22.6440 165.5370 43° Northeast 515 593 37,000  Level FlightAware
07:42AM -22.5910 165.5940 45° Northeast 515 593 37,000  Level FlightAware
07:43AM -22.5380 165.6490 44° Northeast 515 593 37,000  Level FlightAware
07:43AM -22.4860 165.7030 44° Northeast 515 593 37,000  Level FlightAware
07:44AM -22.4330 165.7580 44° Northeast 515 593 37,000  Level FlightAware
07:45AM -22.3810 165.8130 44° Northeast 515 593 37,000  Level FlightAware
07:45AM -22.3280 165.8680 44° Northeast 515 593 37,000  Level FlightAware
07:46AM -22.2760 165.9230 44° Northeast 515 593 37,000  Level FlightAware
07:46AM -22.1210 166.0910 45° Northeast 518 596 37,000  Level FlightAware
07:47AM -22.0660 166.1490 44° Northeast 516 594 37,000  Level FlightAware
07:48AM -21.9990 166.2090 40° Northeast 501 577 37,000  Level FlightAware
07:48AM -21.9380 166.2440 28° Northeast 483 556 37,000  Level FlightAware
07:49AM -21.8560 166.2830 24° Northeast 484 557 37,000  Level FlightAware
07:49AM -21.7940 166.3130 24° Northeast 484 557 37,000  Level FlightAware
07:50AM -21.7310 166.3430 24° Northeast 484 557 37,000  Level FlightAware
07:51AM -21.6260 166.3940 24° Northeast 487 560 37,000  Level FlightAware
07:51AM -21.5600 166.4250 24° Northeast 486 559 37,000  Level FlightAware
07:52AM -21.4930 166.4570 24° Northeast 484 557 37,000  Level FlightAware
07:52AM -21.4120 166.4960 24° Northeast 486 559 37,000  Level FlightAware
07:53AM -21.3370 166.5310 23° Northeast 485 558 37,000  Level FlightAware
07:54AM -21.2730 166.5620 24° Northeast 484 557 37,000  Level FlightAware
07:54AM -21.2010 166.5960 24° Northeast 484 557 37,000  Level FlightAware
07:55AM -21.1310 166.6290 24° Northeast 485 558 37,000  Level FlightAware
07:55AM -21.0550 166.6650 24° Northeast 486 559 37,000  Level FlightAware
07:56AM -20.9800 166.7000 24° Northeast 487 560 37,000  Level FlightAware
07:57AM -20.9060 166.7360 24° Northeast 487 560 37,000  Level FlightAware
07:57AM -20.8390 166.7670 23° Northeast 487 560 37,000  Level FlightAware
07:58AM -20.7770 166.7960 24° Northeast 487 560 37,000  Level FlightAware
07:58AM -20.7020 166.8320 24° Northeast 482 555 37,000  Level FlightAware
07:59AM -20.6280 166.8670 24° Northeast 479 551 37,000  Level FlightAware
07:59AM -20.5620 166.8970 23° Northeast 479 551 37,000  Level FlightAware
08:00AM -20.4790 166.9370 24° Northeast 477 549 37,000  Level FlightAware
08:01AM -20.3950 166.9760 24° Northeast 477 549 37,000  Level FlightAware
08:01AM -20.3320 167.0040 23° Northeast 477 549 37,000  Level FlightAware
08:02AM -20.2700 167.0320 23° Northeast 477 549 37,000  Level FlightAware
08:03AM -20.2080 167.0600 23° Northeast 477 549 37,000  Level FlightAware
08:03AM -20.1460 167.0880 23° Northeast 477 549 37,000  Level FlightAware
08:04AM -20.0820 167.1170 23° Northeast 477 549 37,000  Level FlightAware
08:04AM -20.0200 167.1450 23° Northeast 477 549 37,000  Level FlightAware
08:05AM -19.9580 167.1730 23° Northeast 477 549 37,000  Level FlightAware
08:06AM -19.8960 167.2010 23° Northeast 477 549 37,000  Level FlightAware
08:06AM -19.8330 167.2290 23° Northeast 477 549 37,000  Level FlightAware
08:07AM -19.7710 167.2570 23° Northeast 477 549 37,000  Level FlightAware
08:07AM -19.7090 167.2850 23° Northeast 477 549 37,000  Level FlightAware
08:08AM -19.6470 167.3130 23° Northeast 477 549 37,000  Level FlightAware
08:09AM -19.5830 167.3420 23° Northeast 477 549 37,000  Level FlightAware
08:09AM -19.5160 167.3720 23° Northeast 477 549 37,000  Level FlightAware
08:10AM -19.4520 167.4010 23° Northeast 477 549 37,000  Level FlightAware
08:13AM -19.1332 167.5547 24° Northeast  Level FlightAware Approximate
08:14AM -19.0106 167.6137 24° Northeast  Level FlightAware Approximate
08:15AM -18.8879 167.6726 24° Northeast  Level FlightAware Approximate
08:16AM -18.7652 167.7314 24° Northeast  Level FlightAware Approximate
08:17AM -18.6425 167.7901 24° Northeast  Level FlightAware Approximate
08:18AM -18.5196 167.8485 24° Northeast  Level FlightAware Approximate
08:19AM -18.3962 167.9056 24° Northeast  Level FlightAware Approximate
08:20AM -18.2729 167.9627 24° Northeast  Level FlightAware Approximate
08:21AM -18.1495 168.0196 24° Northeast  Level FlightAware Approximate
08:22AM -18.0262 168.0765 24° Northeast  Level FlightAware Approximate
08:23AM -17.9028 168.1334 24° Northeast  Level FlightAware Approximate
08:24AM -17.7794 168.1901 24° Northeast  Level FlightAware Approximate
08:25AM -17.6652 168.2502 117° Southeast  Level FlightAware Approximate
08:26AM -17.6991 168.3198 117° Southeast  Level FlightAware Approximate
08:27AM -17.6993 168.3198 117° Southeast  Level Estimated
08:28AM -17.6991 168.3198 117° Southeast  Level FlightAware Approximate
08:29AM -17.6993 168.3198 117° Southeast  Level Estimated
08:30AM -17.6991 168.3198 117° Southeast  Level FlightAware Approximate
08:31AM -17.6993 168.3198 117° Southeast  Level Estimated
08:32AM -17.6991 168.3198 117° Southeast  Level FlightAware Approximate
08:33AM -17.6993 168.3198 117° Southeast  Level Estimated
08:34AM -17.6991 168.3198 117° Southeast  Level FlightAware Approximate
08:35AM -17.6993 168.3198 117° Southeast  Level Estimated
08:36AM -17.6991 168.3198 117° Southeast  Level FlightAware Approximate
08:37AM -17.6993 168.3198 117° Southeast  Level Estimated
08:38AM -17.6991 168.3198 117° Southeast  Level FlightAware Approximate
08:39AM -17.6993 168.3198 117° Southeast  Level Estimated
08:40AM -17.6991 168.3198 117° Southeast  Level FlightAware Approximate
08:41AM -17.6993 168.3198 117° Southeast  Level Estimated
08:42AM -17.6991 168.3198 117° Southeast  Level FlightAware Approximate
08:43AM -17.6993 168.3198 117° Southeast  Level Estimated
08:44AM -17.6991 168.3198 117° Southeast  Level FlightAware Approximate